createdAt,value
2019-05-19T00:00:48.248Z,14.82
2019-05-19T00:01:48.219Z,14.70
2019-05-19T00:02:48.291Z,14.63
2019-05-19T00:03:48.213Z,14.63
2019-05-19T00:04:48.236Z,14.71
2019-05-19T00:05:48.196Z,14.77
2019-05-19T00:06:48.176Z,14.70
2019-05-19T00:07:48.202Z,14.63
2019-05-19T00:08:48.169Z,14.55
2019-05-19T00:09:48.159Z,14.62
2019-05-19T00:10:48.138Z,14.52
2019-05-19T00:11:48.140Z,14.53
2019-05-19T00:12:48.105Z,14.45
2019-05-19T00:13:48.091Z,14.45
2019-05-19T00:14:48.152Z,14.45
2019-05-19T00:15:48.068Z,14.38
2019-05-19T00:16:48.062Z,14.37
2019-05-19T00:17:48.041Z,14.36
2019-05-19T00:18:48.058Z,14.44
2019-05-19T00:19:48.016Z,14.31
2019-05-19T00:20:48.068Z,14.33
2019-05-19T00:21:48.006Z,14.31
2019-05-19T00:22:48.023Z,14.33
2019-05-19T00:23:47.992Z,14.18
2019-05-19T00:24:47.991Z,14.25
2019-05-19T00:25:47.969Z,14.28
2019-05-19T00:26:47.951Z,14.28
2019-05-19T00:27:47.942Z,14.20
2019-05-19T00:28:47.925Z,14.20
2019-05-19T00:29:47.924Z,14.05
2019-05-19T00:30:47.926Z,14.12
2019-05-19T00:31:47.906Z,14.11
2019-05-19T00:32:47.886Z,14.08
2019-05-19T00:33:47.869Z,14.04
2019-05-19T00:34:47.869Z,13.97
2019-05-19T00:35:47.884Z,13.98
2019-05-19T00:36:47.854Z,14.04
2019-05-19T00:37:47.832Z,13.95
2019-05-19T00:38:47.818Z,13.95
2019-05-19T00:39:47.894Z,14.00
2019-05-19T00:40:47.802Z,14.05
2019-05-19T00:41:47.830Z,14.04
2019-05-19T00:42:47.778Z,14.04
2019-05-19T00:43:47.767Z,14.07
2019-05-19T00:44:47.743Z,14.08
2019-05-19T00:45:47.729Z,14.04
2019-05-19T00:46:47.749Z,14.03
2019-05-19T00:47:47.783Z,13.97
2019-05-19T00:48:47.719Z,13.94
2019-05-19T00:49:47.699Z,13.98
2019-05-19T00:50:47.691Z,13.98
2019-05-19T00:51:47.673Z,14.03
2019-05-19T00:52:47.691Z,14.00
2019-05-19T00:53:47.661Z,13.97
2019-05-19T00:54:47.653Z,13.93
2019-05-19T00:55:47.633Z,13.93
2019-05-19T00:56:47.685Z,13.97
2019-05-19T00:57:47.630Z,13.95
2019-05-19T00:58:47.690Z,13.95
2019-05-19T00:59:47.600Z,13.94
2019-05-19T01:00:47.587Z,13.89
2019-05-19T01:01:47.573Z,13.91
2019-05-19T01:02:47.568Z,13.95
2019-05-19T01:03:47.558Z,13.89
2019-05-19T01:04:47.554Z,13.83
2019-05-19T01:05:47.537Z,13.85
2019-05-19T01:06:47.544Z,13.86
2019-05-19T01:07:47.508Z,13.85
2019-05-19T01:08:47.549Z,13.83
2019-05-19T01:09:47.474Z,13.85
2019-05-19T01:10:47.533Z,13.89
2019-05-19T01:11:47.469Z,13.82
2019-05-19T01:12:47.443Z,13.86
2019-05-19T01:13:47.450Z,13.86
2019-05-19T01:14:47.455Z,13.91
2019-05-19T01:15:47.429Z,13.94
2019-05-19T01:16:47.413Z,13.94
2019-05-19T01:17:47.410Z,13.94
2019-05-19T01:18:47.428Z,13.93
2019-05-19T01:19:55.693Z,13.94
2019-05-19T01:20:48.375Z,13.94
2019-05-19T01:21:47.364Z,13.93
2019-05-19T01:22:47.354Z,13.98
2019-05-19T01:23:47.334Z,13.94
2019-05-19T01:24:47.334Z,14.01
2019-05-19T01:25:47.304Z,13.97
2019-05-19T01:26:47.313Z,14.00
2019-05-19T01:27:47.291Z,13.94
2019-05-19T01:28:47.293Z,13.91
2019-05-19T01:29:47.343Z,13.91
2019-05-19T01:30:47.248Z,13.97
2019-05-19T01:31:47.264Z,13.93
2019-05-19T01:32:47.250Z,13.97
2019-05-19T01:33:47.297Z,13.93
2019-05-19T01:34:47.221Z,13.91
2019-05-19T01:35:47.230Z,13.93
2019-05-19T01:36:47.201Z,13.98
2019-05-19T01:37:47.177Z,13.89
2019-05-19T01:38:47.174Z,13.93
2019-05-19T01:39:47.177Z,13.93
2019-05-19T01:40:47.170Z,13.97
2019-05-19T01:41:47.141Z,13.97
2019-05-19T01:42:47.175Z,13.95
2019-05-19T01:43:47.130Z,13.93
2019-05-19T01:44:47.116Z,13.95
2019-05-19T01:45:47.122Z,13.89
2019-05-19T01:46:47.100Z,13.89
2019-05-19T01:47:47.086Z,13.93
2019-05-19T01:48:47.061Z,13.94
2019-05-19T01:49:47.048Z,13.91
2019-05-19T01:50:47.060Z,13.91
2019-05-19T01:51:47.067Z,13.89
2019-05-19T01:52:47.050Z,13.89
2019-05-19T01:53:47.024Z,13.78
2019-05-19T01:54:47.023Z,13.86
2019-05-19T01:55:46.998Z,13.83
2019-05-19T01:56:46.979Z,13.85
2019-05-19T01:57:47.006Z,13.79
2019-05-19T01:58:46.967Z,13.80
2019-05-19T01:59:46.966Z,13.78
2019-05-19T02:00:46.980Z,13.83
2019-05-19T02:01:46.931Z,13.79
2019-05-19T02:02:46.947Z,13.78
2019-05-19T02:03:46.921Z,13.79
2019-05-19T02:04:46.899Z,13.71
2019-05-19T02:05:46.886Z,13.68
2019-05-19T02:06:46.887Z,13.73
2019-05-19T02:07:46.870Z,13.65
2019-05-19T02:08:46.949Z,13.58
2019-05-19T02:09:46.859Z,13.62
2019-05-19T02:10:46.844Z,13.61
2019-05-19T02:11:46.840Z,13.70
2019-05-19T02:12:46.800Z,13.57
2019-05-19T02:13:46.815Z,13.62
2019-05-19T02:14:46.814Z,13.58
2019-05-19T02:15:46.784Z,13.62
2019-05-19T02:16:46.772Z,13.54
2019-05-19T02:17:46.765Z,13.52
2019-05-19T02:18:46.735Z,13.65
2019-05-19T02:19:46.762Z,13.55
2019-05-19T02:20:46.728Z,13.61
2019-05-19T02:21:46.716Z,13.55
2019-05-19T02:22:46.726Z,13.49
2019-05-19T02:23:46.698Z,13.50
2019-05-19T02:24:46.674Z,13.50
2019-05-19T02:25:46.693Z,13.47
2019-05-19T02:26:46.668Z,13.58
2019-05-19T02:27:46.673Z,13.45
2019-05-19T02:28:46.649Z,13.49
2019-05-19T02:29:46.682Z,13.55
2019-05-19T02:30:46.628Z,13.61
2019-05-19T02:31:46.624Z,13.58
2019-05-19T02:32:46.613Z,13.49
2019-05-19T02:33:46.603Z,13.65
2019-05-19T02:34:46.582Z,13.50
2019-05-19T02:35:46.588Z,13.64
2019-05-19T02:36:46.580Z,13.61
2019-05-19T02:37:46.544Z,13.62
2019-05-19T02:38:46.536Z,13.54
2019-05-19T02:39:46.535Z,13.54
2019-05-19T02:40:46.539Z,13.49
2019-05-19T02:41:46.533Z,13.50
2019-05-19T02:42:46.517Z,13.49
2019-05-19T02:43:46.500Z,13.47
2019-05-19T02:44:46.480Z,13.45
2019-05-19T02:45:46.493Z,13.45
2019-05-19T02:46:46.456Z,13.43
2019-05-19T02:47:46.463Z,13.40
2019-05-19T02:48:46.432Z,13.42
2019-05-19T02:49:46.429Z,13.30
2019-05-19T02:50:52.259Z,13.28
2019-05-19T02:51:47.402Z,13.30
2019-05-19T02:52:46.416Z,13.36
2019-05-19T02:53:46.402Z,13.26
2019-05-19T02:54:46.356Z,13.27
2019-05-19T02:55:46.386Z,13.27
2019-05-19T02:56:46.344Z,13.24
2019-05-19T02:57:46.348Z,13.30
2019-05-19T02:58:46.326Z,13.31
2019-05-19T02:59:46.333Z,13.24
2019-05-19T03:00:46.305Z,13.24
2019-05-19T03:01:46.384Z,13.31
2019-05-19T03:02:46.273Z,13.31
2019-05-19T03:03:46.296Z,13.20
2019-05-19T03:04:46.263Z,13.24
2019-05-19T03:05:46.262Z,13.24
2019-05-19T03:06:46.279Z,13.23
2019-05-19T03:07:46.248Z,13.16
2019-05-19T03:08:46.233Z,13.21
2019-05-19T03:09:46.241Z,13.23
2019-05-19T03:10:46.195Z,13.31
2019-05-19T03:11:46.186Z,13.26
2019-05-19T03:12:46.181Z,13.19
2019-05-19T03:13:46.159Z,13.17
2019-05-19T03:14:46.171Z,13.30
2019-05-19T03:15:46.185Z,13.23
2019-05-19T03:16:46.152Z,13.20
2019-05-19T03:17:46.127Z,13.16
2019-05-19T03:18:46.108Z,13.30
2019-05-19T03:19:46.112Z,13.28
2019-05-19T03:20:46.099Z,13.36
2019-05-19T03:21:46.088Z,13.40
2019-05-19T03:22:46.083Z,13.30
2019-05-19T03:23:46.062Z,13.31
2019-05-19T03:24:46.086Z,13.31
2019-05-19T03:25:46.049Z,13.46
2019-05-19T03:26:46.019Z,13.46
2019-05-19T03:27:46.041Z,13.50
2019-05-19T03:28:45.995Z,13.49
2019-05-19T03:29:46.003Z,13.57
2019-05-19T03:30:45.984Z,13.52
2019-05-19T03:31:46.012Z,13.62
2019-05-19T03:34:14.709Z,13.60
2019-05-19T03:35:14.656Z,13.50
2019-05-19T03:36:14.683Z,13.55
2019-05-19T03:37:46.172Z,13.49
2019-05-19T03:38:17.177Z,13.62
2019-05-19T03:39:14.655Z,13.60
2019-05-19T03:40:15.171Z,13.54
2019-05-19T03:41:14.726Z,13.61
2019-05-19T03:42:14.839Z,13.62
2019-05-19T03:43:14.595Z,13.75
2019-05-19T03:44:14.637Z,13.70
2019-05-19T03:45:15.175Z,13.67
2019-05-19T03:46:14.575Z,13.71
2019-05-19T03:47:14.739Z,13.71
2019-05-19T03:48:14.564Z,13.71
2019-05-19T03:49:16.172Z,13.68
2019-05-19T03:50:14.517Z,13.70
2019-05-19T03:51:29.374Z,13.75
2019-05-19T03:52:16.734Z,13.75
2019-05-19T03:53:15.476Z,13.80
2019-05-19T03:54:14.477Z,13.80
2019-05-19T03:55:16.243Z,13.85
2019-05-19T03:56:14.455Z,13.83
2019-05-19T03:57:14.473Z,13.82
2019-05-19T03:58:14.433Z,13.87
2019-05-19T03:59:14.415Z,13.86
2019-05-19T04:00:14.429Z,13.80
2019-05-19T04:01:14.430Z,13.86
2019-05-19T04:02:14.466Z,13.94
2019-05-19T04:03:14.389Z,13.79
2019-05-19T04:04:14.368Z,13.94
2019-05-19T04:05:14.402Z,13.91
2019-05-19T04:06:14.349Z,13.95
2019-05-19T04:07:14.348Z,14.00
2019-05-19T04:08:14.393Z,14.00
2019-05-19T04:09:17.294Z,13.97
2019-05-19T04:10:14.350Z,14.00
2019-05-19T04:11:14.354Z,13.97
2019-05-19T04:12:14.345Z,14.04
2019-05-19T04:13:14.356Z,14.05
2019-05-19T04:14:14.287Z,14.07
2019-05-19T04:15:14.293Z,14.05
2019-05-19T04:16:14.231Z,14.19
2019-05-19T04:17:14.252Z,14.15
2019-05-19T04:18:14.246Z,14.18
2019-05-19T04:19:14.223Z,14.30
2019-05-19T04:20:14.240Z,14.30
2019-05-19T04:21:14.189Z,14.33
2019-05-19T04:22:14.183Z,14.37
2019-05-19T04:23:14.210Z,14.48
2019-05-19T04:24:14.186Z,14.44
2019-05-19T04:25:14.146Z,14.51
2019-05-19T04:26:14.156Z,14.61
2019-05-19T04:27:14.241Z,14.58
2019-05-19T04:28:14.136Z,14.77
2019-05-19T04:29:14.149Z,14.74
2019-05-19T04:30:14.133Z,14.70
2019-05-19T04:31:14.093Z,14.79
2019-05-19T04:32:14.062Z,14.90
2019-05-19T04:33:14.100Z,14.93
2019-05-19T04:34:14.065Z,15.05
2019-05-19T04:35:14.115Z,14.96
2019-05-19T04:36:14.027Z,15.02
2019-05-19T04:37:14.013Z,15.08
2019-05-19T04:38:14.039Z,15.15
2019-05-19T04:39:13.987Z,15.25
2019-05-19T04:40:14.009Z,15.26
2019-05-19T04:41:14.021Z,15.32
2019-05-19T04:42:13.967Z,15.41
2019-05-19T04:43:13.964Z,15.47
2019-05-19T04:44:13.954Z,15.51
2019-05-19T04:45:13.928Z,15.59
2019-05-19T04:46:14.011Z,15.59
2019-05-19T04:47:13.912Z,15.52
2019-05-19T04:48:13.906Z,15.65
2019-05-19T04:49:13.885Z,15.70
2019-05-19T04:50:13.881Z,15.72
2019-05-19T04:51:13.888Z,15.84
2019-05-19T04:52:13.870Z,15.80
2019-05-19T04:53:13.850Z,15.84
2019-05-19T04:54:13.841Z,15.87
2019-05-19T04:55:13.827Z,15.85
2019-05-19T04:56:13.830Z,15.81
2019-05-19T04:57:13.845Z,15.91
2019-05-19T04:58:13.796Z,15.92
2019-05-19T04:59:13.799Z,16.03
2019-05-19T05:00:13.785Z,16.05
2019-05-19T05:01:13.764Z,16.09
2019-05-19T05:02:13.775Z,16.13
2019-05-19T05:03:13.804Z,16.26
2019-05-19T05:04:13.781Z,16.37
2019-05-19T05:05:13.729Z,16.40
2019-05-19T05:06:13.738Z,16.44
2019-05-19T05:07:13.730Z,16.57
2019-05-19T05:08:29.022Z,16.54
2019-05-19T05:09:14.760Z,16.65
2019-05-19T05:10:13.862Z,16.65
2019-05-19T05:11:13.691Z,16.76
2019-05-19T05:12:13.698Z,16.74
2019-05-19T05:13:13.662Z,16.72
2019-05-19T05:14:13.654Z,16.69
2019-05-19T05:15:13.616Z,16.82
2019-05-19T05:16:13.614Z,16.74
2019-05-19T05:17:13.644Z,16.80
2019-05-19T05:18:13.628Z,16.83
2019-05-19T05:19:13.603Z,16.91
2019-05-19T05:20:13.560Z,16.99
2019-05-19T05:21:13.561Z,17.10
2019-05-19T05:22:21.806Z,17.12
2019-05-19T05:23:14.570Z,17.28
2019-05-19T05:24:13.541Z,17.24
2019-05-19T05:25:13.556Z,17.20
2019-05-19T05:26:13.521Z,17.20
2019-05-19T05:27:13.693Z,17.20
2019-05-19T05:28:13.535Z,17.32
2019-05-19T05:29:13.551Z,17.38
2019-05-19T05:30:13.502Z,17.46
2019-05-19T05:31:15.547Z,17.47
2019-05-19T05:32:13.489Z,17.44
2019-05-19T05:33:13.443Z,17.50
2019-05-19T05:34:13.759Z,17.52
2019-05-19T05:35:13.457Z,17.60
2019-05-19T05:36:13.439Z,17.69
2019-05-19T05:37:13.421Z,17.66
2019-05-19T05:38:13.371Z,17.53
2019-05-19T05:39:13.422Z,17.54
2019-05-19T05:40:13.419Z,17.57
2019-05-19T05:41:13.370Z,17.49
2019-05-19T05:42:13.371Z,17.53
2019-05-19T05:43:13.385Z,17.37
2019-05-19T05:44:13.310Z,17.41
2019-05-19T05:45:13.397Z,17.32
2019-05-19T05:46:13.323Z,17.39
2019-05-19T05:47:13.371Z,17.39
2019-05-19T05:48:13.335Z,17.39
2019-05-19T05:49:13.246Z,17.38
2019-05-19T05:50:13.376Z,17.37
2019-05-19T05:51:13.293Z,17.41
2019-05-19T05:52:13.350Z,17.44
2019-05-19T05:53:13.356Z,17.49
2019-05-19T05:54:13.218Z,17.39
2019-05-19T05:55:13.299Z,17.59
2019-05-19T05:56:13.247Z,17.49
2019-05-19T05:57:13.223Z,17.47
2019-05-19T05:58:13.232Z,17.49
2019-05-19T05:59:13.220Z,17.66
2019-05-19T06:00:15.728Z,17.66
2019-05-19T06:01:13.143Z,17.71
2019-05-19T06:02:13.202Z,17.84
2019-05-19T06:03:13.106Z,17.94
2019-05-19T06:04:13.133Z,17.95
2019-05-19T06:05:13.135Z,17.95
2019-05-19T06:06:13.125Z,18.02
2019-05-19T06:07:13.088Z,18.08
2019-05-19T06:08:13.113Z,18.23
2019-05-19T06:09:13.059Z,18.27
2019-05-19T06:10:13.061Z,18.39
2019-05-19T06:11:13.064Z,18.51
2019-05-19T06:12:13.092Z,18.57
2019-05-19T06:13:13.019Z,18.73
2019-05-19T06:14:13.037Z,18.78
2019-05-19T06:15:12.998Z,18.89
2019-05-19T06:16:12.979Z,18.76
2019-05-19T06:17:12.982Z,18.85
2019-05-19T06:18:13.019Z,18.68
2019-05-19T06:19:12.952Z,18.76
2019-05-19T06:20:12.927Z,18.76
2019-05-19T06:21:12.925Z,18.83
2019-05-19T06:22:12.915Z,18.78
2019-05-19T06:23:12.975Z,18.73
2019-05-19T06:24:12.906Z,18.61
2019-05-19T06:25:12.922Z,18.79
2019-05-19T06:26:12.916Z,18.83
2019-05-19T06:27:12.911Z,18.79
2019-05-19T06:28:12.857Z,18.61
2019-05-19T06:29:12.989Z,18.70
2019-05-19T06:30:12.934Z,18.52
2019-05-19T06:31:12.842Z,18.64
2019-05-19T06:32:12.842Z,18.71
2019-05-19T06:33:12.904Z,18.79
2019-05-19T06:34:12.814Z,18.83
2019-05-19T06:35:12.770Z,18.82
2019-05-19T06:36:12.774Z,18.82
2019-05-19T06:37:12.750Z,18.89
2019-05-19T06:38:12.832Z,18.79
2019-05-19T06:39:12.810Z,18.92
2019-05-19T06:40:12.744Z,19.11
2019-05-19T06:41:12.758Z,19.27
2019-05-19T06:42:12.702Z,19.42
2019-05-19T06:43:12.676Z,19.45
2019-05-19T06:44:12.671Z,19.60
2019-05-19T06:45:12.691Z,19.77
2019-05-19T06:46:12.691Z,19.92
2019-05-19T06:47:12.634Z,19.93
2019-05-19T06:48:12.642Z,20.14
2019-05-19T06:49:12.679Z,20.11
2019-05-19T06:50:12.611Z,20.27
2019-05-19T06:51:12.609Z,20.36
2019-05-19T06:52:12.598Z,20.48
2019-05-19T06:53:14.491Z,20.50
2019-05-19T06:54:12.559Z,20.50
2019-05-19T06:55:12.617Z,20.56
2019-05-19T06:56:12.616Z,20.55
2019-05-19T06:57:12.552Z,20.67
2019-05-19T06:58:12.567Z,20.68
2019-05-19T06:59:12.576Z,20.74
2019-05-19T07:00:12.510Z,20.77
2019-05-19T07:01:12.557Z,20.88
2019-05-19T07:02:12.522Z,20.74
2019-05-19T07:03:12.486Z,20.82
2019-05-19T07:04:12.523Z,20.98
2019-05-19T07:05:12.491Z,20.95
2019-05-19T07:06:12.532Z,20.93
2019-05-19T07:07:12.464Z,21.00
2019-05-19T07:08:12.479Z,21.10
2019-05-19T07:09:12.502Z,21.14
2019-05-19T07:10:12.458Z,21.14
2019-05-19T07:11:13.227Z,21.15
2019-05-19T07:12:12.888Z,21.22
2019-05-19T07:13:12.454Z,21.28
2019-05-19T07:14:12.572Z,21.29
2019-05-19T07:15:12.525Z,21.43
2019-05-19T07:16:12.493Z,21.59
2019-05-19T07:17:12.441Z,21.62
2019-05-19T07:18:12.477Z,21.60
2019-05-19T07:19:13.228Z,21.75
2019-05-19T07:20:12.419Z,21.68
2019-05-19T07:21:12.290Z,21.88
2019-05-19T07:22:12.412Z,21.80
2019-05-19T07:23:25.811Z,21.94
2019-05-19T07:24:13.258Z,22.07
2019-05-19T07:25:12.356Z,22.10
2019-05-19T07:26:12.776Z,22.19
2019-05-19T07:27:12.238Z,22.26
2019-05-19T07:28:12.226Z,22.36
2019-05-19T07:29:12.263Z,22.38
2019-05-19T07:30:12.775Z,22.40
2019-05-19T07:31:12.174Z,22.47
2019-05-19T07:32:12.196Z,22.43
2019-05-19T07:33:12.194Z,22.46
2019-05-19T07:34:12.166Z,22.33
2019-05-19T07:35:12.132Z,22.33
2019-05-19T07:36:12.171Z,22.41
2019-05-19T07:37:12.116Z,22.41
2019-05-19T07:38:12.102Z,22.51
2019-05-19T07:39:12.120Z,22.47
2019-05-19T07:40:12.115Z,22.55
2019-05-19T07:41:12.258Z,22.70
2019-05-19T07:42:12.182Z,22.77
2019-05-19T07:43:12.153Z,22.89
2019-05-19T07:44:12.074Z,22.89
2019-05-19T07:45:12.081Z,22.83
2019-05-19T07:46:12.059Z,22.91
2019-05-19T07:47:12.741Z,22.96
2019-05-19T07:48:12.380Z,22.98
2019-05-19T07:49:15.948Z,23.11
2019-05-19T07:50:20.226Z,23.07
2019-05-19T07:51:12.745Z,23.25
2019-05-19T07:52:31.025Z,23.33
2019-05-19T07:53:20.594Z,23.37
2019-05-19T07:54:11.977Z,23.54
2019-05-19T07:56:30.425Z,23.62
2019-05-19T07:57:30.083Z,23.56
2019-05-19T07:58:30.848Z,23.56
2019-05-19T07:59:30.029Z,23.58
2019-05-19T08:00:30.103Z,23.70
2019-05-19T08:01:30.209Z,23.71
2019-05-19T08:02:30.185Z,23.89
2019-05-19T08:03:30.040Z,23.85
2019-05-19T08:04:30.069Z,23.84
2019-05-19T08:05:29.994Z,23.84
2019-05-19T08:06:29.984Z,23.88
2019-05-19T08:07:30.114Z,23.88
2019-05-19T08:08:30.820Z,23.85
2019-05-19T08:09:29.971Z,23.99
2019-05-19T08:10:30.164Z,24.01
2019-05-19T08:11:30.176Z,24.10
2019-05-19T08:12:30.263Z,24.13
2019-05-19T08:13:29.910Z,24.10
2019-05-19T08:14:29.941Z,24.24
2019-05-19T08:15:29.850Z,24.11
2019-05-19T08:16:29.921Z,24.11
2019-05-19T08:17:29.910Z,24.14
2019-05-19T08:18:29.864Z,24.10
2019-05-19T08:19:29.921Z,24.25
2019-05-19T08:20:30.128Z,24.29
2019-05-19T08:21:29.822Z,24.38
2019-05-19T08:22:29.833Z,24.46
2019-05-19T08:23:29.782Z,24.59
2019-05-19T08:24:30.115Z,24.81
2019-05-19T08:25:29.804Z,24.79
2019-05-19T08:26:29.759Z,24.99
2019-05-19T08:27:30.283Z,24.97
2019-05-19T08:28:29.977Z,25.15
2019-05-19T08:29:29.874Z,25.12
2019-05-19T08:30:29.892Z,25.16
2019-05-19T08:31:29.801Z,25.18
2019-05-19T08:32:29.737Z,25.19
2019-05-19T08:33:29.778Z,25.18
2019-05-19T08:34:29.674Z,25.15
2019-05-19T08:35:29.751Z,25.03
2019-05-19T08:36:29.841Z,25.07
2019-05-19T08:37:29.680Z,24.99
2019-05-19T08:38:30.475Z,25.16
2019-05-19T08:39:29.601Z,25.14
2019-05-19T08:40:29.701Z,25.18
2019-05-19T08:41:29.625Z,25.12
2019-05-19T08:42:30.733Z,25.04
2019-05-19T08:43:30.357Z,25.01
2019-05-19T08:44:31.867Z,25.07
2019-05-19T08:45:29.543Z,25.11
2019-05-19T08:46:30.346Z,25.18
2019-05-19T08:47:30.457Z,25.18
2019-05-19T08:48:29.839Z,25.31
2019-05-19T08:49:29.594Z,25.22
2019-05-19T08:50:29.542Z,25.33
2019-05-19T08:51:29.471Z,25.41
2019-05-19T08:52:29.559Z,25.39
2019-05-19T08:53:29.644Z,25.37
2019-05-19T08:54:29.505Z,25.34
2019-05-19T08:55:29.453Z,25.22
2019-05-19T08:56:30.430Z,25.34
2019-05-19T08:57:29.526Z,25.34
2019-05-19T08:58:29.454Z,25.41
2019-05-19T08:59:29.449Z,25.44
2019-05-19T09:00:29.501Z,25.36
2019-05-19T09:01:29.436Z,25.25
2019-05-19T09:02:29.363Z,25.25
2019-05-19T09:03:30.039Z,25.36
2019-05-19T09:04:29.410Z,25.29
2019-05-19T09:05:29.362Z,25.16
2019-05-19T09:06:29.352Z,25.19
2019-05-19T09:07:29.407Z,25.15
2019-05-19T09:08:29.368Z,25.25
2019-05-19T09:09:29.342Z,25.19
2019-05-19T09:10:29.396Z,25.19
2019-05-19T09:11:29.302Z,25.24
2019-05-19T09:12:29.288Z,25.31
2019-05-19T09:13:29.482Z,25.37
2019-05-19T09:14:29.239Z,25.41
2019-05-19T09:15:29.245Z,25.40
2019-05-19T09:16:29.292Z,25.49
2019-05-19T09:17:29.845Z,25.33
2019-05-19T09:18:29.218Z,25.22
2019-05-19T09:19:29.253Z,25.18
2019-05-19T09:20:29.204Z,25.15
2019-05-19T09:21:29.264Z,25.26
2019-05-19T09:22:30.812Z,25.25
2019-05-19T09:23:29.200Z,25.15
2019-05-19T09:24:30.859Z,25.19
2019-05-19T09:28:19.264Z,25.22
2019-05-19T09:29:17.269Z,25.33
2019-05-19T09:30:17.248Z,25.39
2019-05-19T09:31:17.318Z,25.37
2019-05-19T09:32:17.248Z,25.30
2019-05-19T09:33:17.308Z,25.22
2019-05-19T09:34:17.294Z,25.26
2019-05-19T09:39:03.026Z,25.26
2019-05-19T09:40:02.153Z,25.37
2019-05-19T09:41:39.946Z,25.26
2019-05-19T09:49:26.014Z,25.43
2019-05-19T09:50:29.688Z,25.44
2019-05-19T09:51:25.960Z,25.54
2019-05-19T09:52:25.956Z,25.55
2019-05-19T09:53:28.593Z,25.61
2019-05-19T09:54:25.980Z,25.67
2019-05-19T09:55:25.926Z,25.73
2019-05-19T09:57:47.889Z,25.86
2019-05-19T09:58:43.712Z,25.76
2019-05-19T09:59:43.975Z,25.83
2019-05-19T10:00:45.384Z,25.77
2019-05-19T10:01:43.693Z,25.85
2019-05-19T10:02:43.931Z,25.71
2019-05-19T10:03:44.469Z,25.76
2019-05-19T10:04:45.760Z,25.68
2019-05-19T10:05:43.669Z,25.74
2019-05-19T10:06:44.409Z,25.78
2019-05-19T10:07:44.387Z,25.80
2019-05-19T10:08:43.621Z,25.80
2019-05-19T10:09:44.390Z,25.86
2019-05-19T10:10:43.636Z,25.88
2019-05-19T10:11:43.601Z,25.81
2019-05-19T10:12:43.562Z,25.88
2019-05-19T10:13:43.585Z,25.85
2019-05-19T10:14:43.684Z,25.81
2019-05-19T10:15:43.543Z,25.80
2019-05-19T10:16:43.605Z,25.83
2019-05-19T10:17:43.579Z,25.81
2019-05-19T10:18:43.538Z,25.89
2019-05-19T10:19:43.528Z,25.83
2019-05-19T10:20:43.499Z,25.88
2019-05-19T10:21:43.508Z,25.93
2019-05-19T10:22:43.467Z,25.92
2019-05-19T10:23:43.470Z,25.81
2019-05-19T10:24:59.198Z,25.78
2019-05-19T10:25:44.517Z,25.59
2019-05-19T10:26:43.586Z,25.58
2019-05-19T10:27:43.404Z,25.54
2019-05-19T10:28:43.414Z,25.70
2019-05-19T10:29:43.395Z,25.70
2019-05-19T10:30:43.895Z,25.77
2019-05-19T10:31:43.368Z,25.74
2019-05-19T10:32:43.440Z,25.83
2019-05-19T10:33:43.346Z,25.81
2019-05-19T10:34:43.537Z,25.83
2019-05-19T10:35:43.495Z,25.88
2019-05-19T10:36:43.525Z,25.81
2019-05-19T10:37:43.506Z,25.92
2019-05-19T10:38:43.295Z,25.96
2019-05-19T10:39:43.342Z,25.99
2019-05-19T10:40:43.420Z,26.01
2019-05-19T10:41:43.321Z,25.98
2019-05-19T10:42:43.349Z,25.93
2019-05-19T10:43:43.265Z,26.01
2019-05-19T10:44:43.262Z,26.11
2019-05-19T10:45:43.231Z,26.13
2019-05-19T10:46:43.240Z,26.24
2019-05-19T10:47:43.319Z,26.22
2019-05-19T10:48:43.208Z,26.29
2019-05-19T10:49:43.268Z,26.24
2019-05-19T10:50:43.165Z,26.23
2019-05-19T10:51:43.296Z,26.18
2019-05-19T10:52:43.225Z,26.24
2019-05-19T10:53:43.188Z,26.10
2019-05-19T10:54:43.155Z,26.18
2019-05-19T10:55:43.228Z,26.16
2019-05-19T10:56:43.096Z,26.18
2019-05-19T10:57:43.196Z,26.19
2019-05-19T10:58:43.935Z,26.07
2019-05-19T10:59:44.050Z,26.06
2019-05-19T11:00:43.908Z,26.16
2019-05-19T11:01:43.080Z,26.04
2019-05-19T11:02:43.040Z,25.98
2019-05-19T11:03:43.020Z,26.01
2019-05-19T11:04:43.115Z,25.99
2019-05-19T11:05:43.081Z,25.98
2019-05-19T11:06:43.032Z,26.06
2019-05-19T11:07:43.936Z,25.92
2019-05-19T11:08:43.963Z,25.96
2019-05-19T11:09:43.002Z,25.98
2019-05-19T11:10:43.052Z,25.96
2019-05-19T11:11:42.969Z,25.91
2019-05-19T11:12:42.975Z,25.92
2019-05-19T11:13:42.921Z,25.95
2019-05-19T11:14:43.034Z,25.96
2019-05-19T11:15:42.889Z,25.95
2019-05-19T11:16:43.046Z,25.99
2019-05-19T11:17:42.863Z,26.06
2019-05-19T11:18:43.433Z,25.96
2019-05-19T11:19:42.900Z,26.11
2019-05-19T11:20:42.865Z,26.10
2019-05-19T11:21:42.838Z,26.15
2019-05-19T11:22:42.846Z,26.23
2019-05-19T11:23:42.857Z,26.42
2019-05-19T11:24:42.813Z,26.30
2019-05-19T11:25:51.027Z,26.22
2019-05-19T11:26:43.793Z,26.06
2019-05-19T11:27:45.494Z,25.95
2019-05-19T11:28:42.807Z,25.95
2019-05-19T11:29:42.763Z,25.88
2019-05-19T11:30:42.762Z,25.81
2019-05-19T11:31:42.751Z,25.95
2019-05-19T11:32:42.801Z,26.18
2019-05-19T11:33:42.712Z,26.23
2019-05-19T11:34:42.718Z,26.41
2019-05-19T11:35:42.737Z,26.46
2019-05-19T11:36:42.750Z,26.59
2019-05-19T11:37:43.423Z,26.81
2019-05-19T11:38:42.692Z,26.92
2019-05-19T11:39:42.655Z,27.10
2019-05-19T11:40:42.677Z,27.23
2019-05-19T11:41:42.705Z,27.34
2019-05-19T11:42:42.691Z,27.41
2019-05-19T11:43:42.630Z,27.44
2019-05-19T11:44:42.619Z,27.58
2019-05-19T11:45:42.581Z,27.61
2019-05-19T11:46:42.594Z,27.85
2019-05-19T11:47:42.638Z,27.85
2019-05-19T11:48:42.571Z,27.97
2019-05-19T11:49:42.565Z,27.85
2019-05-19T11:50:42.546Z,27.79
2019-05-19T11:51:42.530Z,27.61
2019-05-19T11:52:42.511Z,27.55
2019-05-19T11:53:42.554Z,27.35
2019-05-19T11:54:42.471Z,27.26
2019-05-19T11:55:42.483Z,27.50
2019-05-19T11:56:42.524Z,28.18
2019-05-19T11:57:42.926Z,29.00
2019-05-19T11:58:42.530Z,29.61
2019-05-19T11:59:42.481Z,30.03
2019-05-19T12:00:42.450Z,30.40
2019-05-19T12:02:06.219Z,30.74
2019-05-19T12:07:47.552Z,30.71
2019-05-19T12:15:49.131Z,33.57
2019-05-19T12:20:13.721Z,34.13
2019-05-19T12:20:17.365Z,34.60
2019-05-19T12:21:15.570Z,34.85
2019-05-19T12:27:59.040Z,34.46
2019-05-19T12:28:19.852Z,33.65
2019-05-19T12:29:19.266Z,33.39
2019-05-19T12:40:46.627Z,36.91
2019-05-19T12:41:17.045Z,36.91
2019-05-19T12:42:16.916Z,36.78
2019-05-19T12:43:17.593Z,36.69
2019-05-19T12:44:22.460Z,36.63
2019-05-19T12:45:17.574Z,36.31
2019-05-19T12:46:16.981Z,35.76
2019-05-19T12:47:16.818Z,35.97
2019-05-19T12:48:16.832Z,36.00
2019-05-19T12:49:16.791Z,36.39
2019-05-19T12:50:16.807Z,36.55
2019-05-19T12:51:16.903Z,36.67
2019-05-19T12:52:16.794Z,36.89
2019-05-19T12:53:16.949Z,37.19
2019-05-19T12:54:16.746Z,37.44
2019-05-19T12:55:16.723Z,37.64
2019-05-19T12:56:16.817Z,37.79
2019-05-19T12:57:16.748Z,37.68
2019-05-19T12:58:17.694Z,37.57
2019-05-19T12:59:16.881Z,37.03
2019-05-19T13:00:16.706Z,36.78
2019-05-19T13:01:16.663Z,36.87
2019-05-19T13:02:18.264Z,36.99
2019-05-19T13:03:16.947Z,37.25
2019-05-19T13:04:19.274Z,37.58
2019-05-19T13:05:16.642Z,37.90
2019-05-19T13:06:17.811Z,38.01
2019-05-19T13:07:16.654Z,38.23
2019-05-19T13:08:16.622Z,38.39
2019-05-19T13:09:17.168Z,38.56
2019-05-19T13:10:16.589Z,38.76
2019-05-19T13:11:16.584Z,39.03
2019-05-19T13:12:16.667Z,39.03
2019-05-19T13:13:16.590Z,39.15
2019-05-19T13:14:17.606Z,39.10
2019-05-19T13:15:16.525Z,38.73
2019-05-19T13:16:16.549Z,38.75
2019-05-19T13:17:17.219Z,38.75
2019-05-19T13:18:16.626Z,39.00
2019-05-19T13:19:16.497Z,38.98
2019-05-19T13:20:16.576Z,38.69
2019-05-19T13:21:16.534Z,38.63
2019-05-19T13:22:16.530Z,38.48
2019-05-19T13:23:16.591Z,38.62
2019-05-19T13:24:16.521Z,38.63
2019-05-19T13:25:16.487Z,38.69
2019-05-19T13:26:16.465Z,38.84
2019-05-19T13:27:16.430Z,38.90
2019-05-19T13:28:16.489Z,39.01
2019-05-19T13:29:16.518Z,39.12
2019-05-19T13:30:16.500Z,39.14
2019-05-19T13:31:16.471Z,39.01
2019-05-19T13:32:16.441Z,38.79
2019-05-19T13:33:16.432Z,38.60
2019-05-19T13:34:16.466Z,38.12
2019-05-19T13:35:16.373Z,38.12
2019-05-19T13:36:16.494Z,37.72
2019-05-19T13:37:16.394Z,36.97
2019-05-19T13:38:16.528Z,36.53
2019-05-19T13:39:16.368Z,36.28
2019-05-19T13:40:16.386Z,35.75